sensor_id;sensor_type;location;lat;lon;timestamp;P1;durP1;ratioP1;P2;durP2;ratioP2
75025;SDS011;63591;50.080;8.286;2022-12-29T00:01:23;7.25;;;1.90;;
75025;SDS011;63591;50.080;8.286;2022-12-29T00:03:49;5.60;;;2.33;;
75025;SDS011;63591;50.080;8.286;2022-12-29T00:06:14;5.43;;;2.23;;
75025;SDS011;63591;50.080;8.286;2022-12-29T00:08:39;6.77;;;2.37;;
75025;SDS011;63591;50.080;8.286;2022-12-29T00:11:09;4.80;;;2.10;;
75025;SDS011;63591;50.080;8.286;2022-12-29T00:13:36;5.65;;;2.25;;
75025;SDS011;63591;50.080;8.286;2022-12-29T00:16:20;5.80;;;2.20;;
75025;SDS011;63591;50.080;8.286;2022-12-29T00:18:46;4.90;;;2.00;;
75025;SDS011;63591;50.080;8.286;2022-12-29T00:21:15;5.57;;;2.27;;
75025;SDS011;63591;50.080;8.286;2022-12-29T00:24:01;4.95;;;2.30;;
75025;SDS011;63591;50.080;8.286;2022-12-29T00:26:53;4.45;;;1.90;;
75025;SDS011;63591;50.080;8.286;2022-12-29T00:29:41;5.82;;;2.35;;
75025;SDS011;63591;50.080;8.286;2022-12-29T00:32:25;5.53;;;2.17;;
75025;SDS011;63591;50.080;8.286;2022-12-29T00:35:09;5.90;;;2.17;;
75025;SDS011;63591;50.080;8.286;2022-12-29T00:37:42;4.93;;;2.05;;
75025;SDS011;63591;50.080;8.286;2022-12-29T00:40:29;3.88;;;1.92;;
75025;SDS011;63591;50.080;8.286;2022-12-29T00:43:13;5.53;;;2.00;;
75025;SDS011;63591;50.080;8.286;2022-12-29T00:45:57;5.85;;;1.92;;
75025;SDS011;63591;50.080;8.286;2022-12-29T00:48:22;4.85;;;2.10;;
75025;SDS011;63591;50.080;8.286;2022-12-29T00:51:06;4.88;;;2.10;;
75025;SDS011;63591;50.080;8.286;2022-12-29T00:53:32;5.88;;;2.20;;
75025;SDS011;63591;50.080;8.286;2022-12-29T00:55:58;4.63;;;2.00;;
75025;SDS011;63591;50.080;8.286;2022-12-29T00:58:26;6.43;;;2.30;;
75025;SDS011;63591;50.080;8.286;2022-12-29T01:00:52;5.28;;;2.30;;
75025;SDS011;63591;50.080;8.286;2022-12-29T01:03:17;4.37;;;2.10;;
75025;SDS011;63591;50.080;8.286;2022-12-29T01:05:42;5.00;;;2.23;;
75025;SDS011;63591;50.080;8.286;2022-12-29T01:08:08;6.43;;;2.00;;
75025;SDS011;63591;50.080;8.286;2022-12-29T01:10:33;5.70;;;1.80;;
75025;SDS011;63591;50.080;8.286;2022-12-29T01:12:58;5.90;;;2.03;;
75025;SDS011;63591;50.080;8.286;2022-12-29T01:15:24;4.97;;;2.00;;
75025;SDS011;63591;50.080;8.286;2022-12-29T01:17:49;4.87;;;2.00;;
75025;SDS011;63591;50.080;8.286;2022-12-29T01:20:14;4.43;;;1.90;;
75025;SDS011;63591;50.080;8.286;2022-12-29T01:22:40;4.82;;;1.80;;
75025;SDS011;63591;50.080;8.286;2022-12-29T01:25:07;4.45;;;1.80;;
75025;SDS011;63591;50.080;8.286;2022-12-29T01:27:32;5.03;;;1.97;;
75025;SDS011;63591;50.080;8.286;2022-12-29T01:29:58;5.40;;;1.90;;
75025;SDS011;63591;50.080;8.286;2022-12-29T01:32:23;5.03;;;1.97;;
75025;SDS011;63591;50.080;8.286;2022-12-29T01:34:48;4.33;;;2.00;;
75025;SDS011;63591;50.080;8.286;2022-12-29T01:37:14;4.00;;;1.80;;
75025;SDS011;63591;50.080;8.286;2022-12-29T01:39:39;4.28;;;1.90;;
75025;SDS011;63591;50.080;8.286;2022-12-29T01:42:04;4.43;;;2.00;;
75025;SDS011;63591;50.080;8.286;2022-12-29T01:47:33;5.10;;;2.20;;
75025;SDS011;63591;50.080;8.286;2022-12-29T01:50:05;4.40;;;1.80;;
75025;SDS011;63591;50.080;8.286;2022-12-29T01:55:32;3.90;;;1.80;;
75025;SDS011;63591;50.080;8.286;2022-12-29T01:58:02;4.53;;;1.98;;
75025;SDS011;63591;50.080;8.286;2022-12-29T02:00:30;5.72;;;2.28;;
75025;SDS011;63591;50.080;8.286;2022-12-29T02:02:56;5.70;;;2.10;;
75025;SDS011;63591;50.080;8.286;2022-12-29T02:07:50;6.28;;;2.00;;
75025;SDS011;63591;50.080;8.286;2022-12-29T02:10:19;5.10;;;2.03;;
75025;SDS011;63591;50.080;8.286;2022-12-29T02:12:46;4.65;;;2.20;;
75025;SDS011;63591;50.080;8.286;2022-12-29T02:15:12;4.60;;;2.00;;
75025;SDS011;63591;50.080;8.286;2022-12-29T02:17:41;4.45;;;2.00;;
75025;SDS011;63591;50.080;8.286;2022-12-29T02:23:30;4.28;;;1.70;;
75025;SDS011;63591;50.080;8.286;2022-12-29T02:37:13;4.72;;;1.73;;
75025;SDS011;63591;50.080;8.286;2022-12-29T02:39:50;3.90;;;1.75;;
75025;SDS011;63591;50.080;8.286;2022-12-29T02:42:41;4.60;;;1.63;;
75025;SDS011;63591;50.080;8.286;2022-12-29T02:48:15;4.82;;;1.88;;
75025;SDS011;63591;50.080;8.286;2022-12-29T02:50:51;4.82;;;1.70;;
75025;SDS011;63591;50.080;8.286;2022-12-29T02:53:22;5.18;;;1.67;;
75025;SDS011;63591;50.080;8.286;2022-12-29T02:56:08;5.20;;;1.80;;
75025;SDS011;63591;50.080;8.286;2022-12-29T02:58:33;3.70;;;1.52;;
75025;SDS011;63591;50.080;8.286;2022-12-29T03:06:17;4.70;;;1.50;;
75025;SDS011;63591;50.080;8.286;2022-12-29T03:09:01;5.03;;;1.50;;
75025;SDS011;63591;50.080;8.286;2022-12-29T03:11:39;3.95;;;1.33;;
75025;SDS011;63591;50.080;8.286;2022-12-29T03:14:32;4.38;;;1.40;;
75025;SDS011;63591;50.080;8.286;2022-12-29T03:17:26;3.70;;;1.42;;
75025;SDS011;63591;50.080;8.286;2022-12-29T03:20:01;4.10;;;1.50;;
75025;SDS011;63591;50.080;8.286;2022-12-29T03:22:32;4.53;;;1.35;;
75025;SDS011;63591;50.080;8.286;2022-12-29T03:25:08;3.67;;;1.30;;
75025;SDS011;63591;50.080;8.286;2022-12-29T03:27:46;3.47;;;1.30;;
75025;SDS011;63591;50.080;8.286;2022-12-29T03:30:15;4.32;;;1.30;;
75025;SDS011;63591;50.080;8.286;2022-12-29T03:32:52;3.70;;;1.47;;
75025;SDS011;63591;50.080;8.286;2022-12-29T03:35:25;4.78;;;1.38;;
75025;SDS011;63591;50.080;8.286;2022-12-29T03:37:58;3.42;;;1.50;;
75025;SDS011;63591;50.080;8.286;2022-12-29T03:40:27;3.90;;;1.60;;
75025;SDS011;63591;50.080;8.286;2022-12-29T03:42:55;4.65;;;1.40;;
75025;SDS011;63591;50.080;8.286;2022-12-29T03:45:20;4.40;;;1.30;;
75025;SDS011;63591;50.080;8.286;2022-12-29T03:47:46;3.85;;;1.40;;
75025;SDS011;63591;50.080;8.286;2022-12-29T03:50:12;4.47;;;1.40;;
75025;SDS011;63591;50.080;8.286;2022-12-29T03:52:38;4.38;;;1.45;;
75025;SDS011;63591;50.080;8.286;2022-12-29T03:55:04;3.83;;;1.30;;
75025;SDS011;63591;50.080;8.286;2022-12-29T03:57:29;3.75;;;1.40;;
75025;SDS011;63591;50.080;8.286;2022-12-29T03:59:54;3.20;;;1.40;;
75025;SDS011;63591;50.080;8.286;2022-12-29T04:02:20;4.67;;;1.50;;
75025;SDS011;63591;50.080;8.286;2022-12-29T04:04:45;4.37;;;1.53;;
75025;SDS011;63591;50.080;8.286;2022-12-29T04:07:11;4.50;;;1.47;;
75025;SDS011;63591;50.080;8.286;2022-12-29T04:09:36;4.40;;;1.50;;
75025;SDS011;63591;50.080;8.286;2022-12-29T04:12:01;4.00;;;1.60;;
75025;SDS011;63591;50.080;8.286;2022-12-29T04:14:27;3.40;;;1.40;;
75025;SDS011;63591;50.080;8.286;2022-12-29T04:16:52;4.37;;;1.60;;
75025;SDS011;63591;50.080;8.286;2022-12-29T04:19:17;4.33;;;1.30;;
75025;SDS011;63591;50.080;8.286;2022-12-29T04:21:43;4.60;;;1.60;;
75025;SDS011;63591;50.080;8.286;2022-12-29T04:24:08;5.40;;;1.60;;
75025;SDS011;63591;50.080;8.286;2022-12-29T04:26:33;3.57;;;1.60;;
75025;SDS011;63591;50.080;8.286;2022-12-29T04:28:59;4.10;;;1.50;;
75025;SDS011;63591;50.080;8.286;2022-12-29T04:31:24;4.67;;;1.53;;
75025;SDS011;63591;50.080;8.286;2022-12-29T04:33:49;5.53;;;1.57;;
75025;SDS011;63591;50.080;8.286;2022-12-29T04:36:15;4.88;;;1.70;;
75025;SDS011;63591;50.080;8.286;2022-12-29T04:38:40;4.65;;;1.65;;
75025;SDS011;63591;50.080;8.286;2022-12-29T04:41:05;4.90;;;1.63;;
75025;SDS011;63591;50.080;8.286;2022-12-29T04:43:31;4.07;;;1.50;;
75025;SDS011;63591;50.080;8.286;2022-12-29T04:45:56;4.17;;;1.50;;
75025;SDS011;63591;50.080;8.286;2022-12-29T04:48:21;4.63;;;1.77;;
75025;SDS011;63591;50.080;8.286;2022-12-29T04:50:47;5.63;;;1.90;;
75025;SDS011;63591;50.080;8.286;2022-12-29T04:53:13;4.47;;;1.52;;
75025;SDS011;63591;50.080;8.286;2022-12-29T04:55:39;4.93;;;1.80;;
75025;SDS011;63591;50.080;8.286;2022-12-29T04:58:05;4.50;;;1.63;;
75025;SDS011;63591;50.080;8.286;2022-12-29T05:00:30;4.10;;;1.60;;
75025;SDS011;63591;50.080;8.286;2022-12-29T05:02:56;4.45;;;1.60;;
75025;SDS011;63591;50.080;8.286;2022-12-29T05:05:21;5.33;;;1.53;;
75025;SDS011;63591;50.080;8.286;2022-12-29T05:07:47;3.87;;;1.60;;
75025;SDS011;63591;50.080;8.286;2022-12-29T05:10:12;5.63;;;1.63;;
75025;SDS011;63591;50.080;8.286;2022-12-29T05:12:37;4.47;;;1.83;;
75025;SDS011;63591;50.080;8.286;2022-12-29T05:15:04;3.95;;;1.70;;
75025;SDS011;63591;50.080;8.286;2022-12-29T05:17:30;4.78;;;1.77;;
75025;SDS011;63591;50.080;8.286;2022-12-29T05:19:55;4.10;;;1.67;;
75025;SDS011;63591;50.080;8.286;2022-12-29T05:22:20;3.93;;;1.60;;
75025;SDS011;63591;50.080;8.286;2022-12-29T05:24:46;4.33;;;1.80;;
75025;SDS011;63591;50.080;8.286;2022-12-29T05:27:11;5.80;;;1.60;;
75025;SDS011;63591;50.080;8.286;2022-12-29T05:29:37;3.33;;;1.63;;
75025;SDS011;63591;50.080;8.286;2022-12-29T05:32:02;3.90;;;1.77;;
75025;SDS011;63591;50.080;8.286;2022-12-29T05:34:27;4.80;;;1.57;;
75025;SDS011;63591;50.080;8.286;2022-12-29T05:36:53;4.40;;;1.70;;
75025;SDS011;63591;50.080;8.286;2022-12-29T05:39:18;5.03;;;1.60;;
75025;SDS011;63591;50.080;8.286;2022-12-29T05:41:43;3.53;;;1.37;;
75025;SDS011;63591;50.080;8.286;2022-12-29T05:44:09;4.10;;;1.57;;
75025;SDS011;63591;50.080;8.286;2022-12-29T05:46:36;4.47;;;1.50;;
75025;SDS011;63591;50.080;8.286;2022-12-29T05:49:01;3.50;;;1.50;;
75025;SDS011;63591;50.080;8.286;2022-12-29T05:51:26;4.30;;;1.40;;
75025;SDS011;63591;50.080;8.286;2022-12-29T05:53:52;4.03;;;1.60;;
75025;SDS011;63591;50.080;8.286;2022-12-29T05:56:17;4.83;;;1.60;;
75025;SDS011;63591;50.080;8.286;2022-12-29T05:58:42;4.72;;;1.40;;
75025;SDS011;63591;50.080;8.286;2022-12-29T06:01:08;4.10;;;1.60;;
75025;SDS011;63591;50.080;8.286;2022-12-29T06:03:33;3.73;;;1.47;;
75025;SDS011;63591;50.080;8.286;2022-12-29T06:05:58;3.53;;;1.40;;
75025;SDS011;63591;50.080;8.286;2022-12-29T06:08:24;4.23;;;1.67;;
75025;SDS011;63591;50.080;8.286;2022-12-29T06:10:49;4.00;;;1.60;;
75025;SDS011;63591;50.080;8.286;2022-12-29T06:13:15;5.35;;;1.88;;
75025;SDS011;63591;50.080;8.286;2022-12-29T06:15:40;3.65;;;1.52;;
75025;SDS011;63591;50.080;8.286;2022-12-29T06:18:05;4.53;;;1.53;;
75025;SDS011;63591;50.080;8.286;2022-12-29T06:20:31;4.37;;;1.60;;
75025;SDS011;63591;50.080;8.286;2022-12-29T06:22:56;4.63;;;1.80;;
75025;SDS011;63591;50.080;8.286;2022-12-29T06:25:21;3.80;;;1.67;;
75025;SDS011;63591;50.080;8.286;2022-12-29T06:27:47;3.63;;;1.40;;
75025;SDS011;63591;50.080;8.286;2022-12-29T06:30:12;3.90;;;1.50;;
75025;SDS011;63591;50.080;8.286;2022-12-29T06:32:38;4.93;;;1.58;;
75025;SDS011;63591;50.080;8.286;2022-12-29T06:35:04;3.80;;;1.40;;
75025;SDS011;63591;50.080;8.286;2022-12-29T06:37:31;4.15;;;1.50;;
75025;SDS011;63591;50.080;8.286;2022-12-29T06:39:56;4.40;;;1.60;;
75025;SDS011;63591;50.080;8.286;2022-12-29T06:42:22;4.03;;;1.50;;
75025;SDS011;63591;50.080;8.286;2022-12-29T06:44:47;4.13;;;1.60;;
75025;SDS011;63591;50.080;8.286;2022-12-29T06:47:13;4.63;;;1.70;;
75025;SDS011;63591;50.080;8.286;2022-12-29T06:49:38;3.53;;;1.50;;
75025;SDS011;63591;50.080;8.286;2022-12-29T06:52:03;4.40;;;1.80;;
75025;SDS011;63591;50.080;8.286;2022-12-29T06:54:32;4.40;;;1.60;;
75025;SDS011;63591;50.080;8.286;2022-12-29T06:56:57;4.45;;;1.40;;
75025;SDS011;63591;50.080;8.286;2022-12-29T06:59:23;3.43;;;1.30;;
75025;SDS011;63591;50.080;8.286;2022-12-29T07:01:49;4.50;;;1.52;;
75025;SDS011;63591;50.080;8.286;2022-12-29T07:04:14;4.33;;;1.60;;
75025;SDS011;63591;50.080;8.286;2022-12-29T07:06:40;4.33;;;1.73;;
75025;SDS011;63591;50.080;8.286;2022-12-29T07:09:08;3.83;;;1.50;;
75025;SDS011;63591;50.080;8.286;2022-12-29T07:11:34;5.18;;;1.55;;
75025;SDS011;63591;50.080;8.286;2022-12-29T07:14:00;3.78;;;1.50;;
75025;SDS011;63591;50.080;8.286;2022-12-29T07:16:25;3.90;;;1.40;;
75025;SDS011;63591;50.080;8.286;2022-12-29T07:18:51;4.47;;;1.30;;
75025;SDS011;63591;50.080;8.286;2022-12-29T07:21:17;4.40;;;1.50;;
75025;SDS011;63591;50.080;8.286;2022-12-29T07:23:43;5.70;;;1.70;;
75025;SDS011;63591;50.080;8.286;2022-12-29T07:26:10;3.90;;;1.50;;
75025;SDS011;63591;50.080;8.286;2022-12-29T07:28:37;4.50;;;1.50;;
75025;SDS011;63591;50.080;8.286;2022-12-29T07:31:03;3.50;;;1.50;;
75025;SDS011;63591;50.080;8.286;2022-12-29T07:33:29;4.95;;;1.60;;
75025;SDS011;63591;50.080;8.286;2022-12-29T07:35:56;3.95;;;1.73;;
75025;SDS011;63591;50.080;8.286;2022-12-29T07:38:21;4.30;;;1.70;;
75025;SDS011;63591;50.080;8.286;2022-12-29T07:40:47;5.23;;;1.80;;
75025;SDS011;63591;50.080;8.286;2022-12-29T07:43:12;4.20;;;1.77;;
75025;SDS011;63591;50.080;8.286;2022-12-29T07:45:37;4.80;;;1.93;;
75025;SDS011;63591;50.080;8.286;2022-12-29T07:48:03;4.30;;;1.83;;
75025;SDS011;63591;50.080;8.286;2022-12-29T07:50:30;4.70;;;1.90;;
75025;SDS011;63591;50.080;8.286;2022-12-29T07:52:56;4.32;;;1.98;;
75025;SDS011;63591;50.080;8.286;2022-12-29T07:55:21;7.37;;;1.70;;
75025;SDS011;63591;50.080;8.286;2022-12-29T07:57:46;4.63;;;1.97;;
75025;SDS011;63591;50.080;8.286;2022-12-29T08:00:12;4.50;;;2.13;;
75025;SDS011;63591;50.080;8.286;2022-12-29T08:02:37;5.17;;;1.93;;
75025;SDS011;63591;50.080;8.286;2022-12-29T08:05:03;5.88;;;1.80;;
75025;SDS011;63591;50.080;8.286;2022-12-29T08:07:28;4.78;;;1.83;;
75025;SDS011;63591;50.080;8.286;2022-12-29T08:09:54;4.20;;;1.70;;
75025;SDS011;63591;50.080;8.286;2022-12-29T08:12:19;5.73;;;2.00;;
75025;SDS011;63591;50.080;8.286;2022-12-29T08:14:44;5.27;;;2.10;;
75025;SDS011;63591;50.080;8.286;2022-12-29T08:17:09;4.60;;;1.87;;
75025;SDS011;63591;50.080;8.286;2022-12-29T08:19:35;4.53;;;2.00;;
75025;SDS011;63591;50.080;8.286;2022-12-29T08:22:01;4.90;;;1.98;;
75025;SDS011;63591;50.080;8.286;2022-12-29T08:24:26;5.45;;;1.83;;
75025;SDS011;63591;50.080;8.286;2022-12-29T08:26:52;6.93;;;1.90;;
75025;SDS011;63591;50.080;8.286;2022-12-29T08:29:17;4.40;;;1.90;;
75025;SDS011;63591;50.080;8.286;2022-12-29T08:31:43;5.50;;;2.00;;
75025;SDS011;63591;50.080;8.286;2022-12-29T08:34:08;4.65;;;1.88;;
75025;SDS011;63591;50.080;8.286;2022-12-29T08:36:34;5.53;;;2.10;;
75025;SDS011;63591;50.080;8.286;2022-12-29T08:38:59;6.67;;;2.10;;
75025;SDS011;63591;50.080;8.286;2022-12-29T08:41:24;5.73;;;2.07;;
75025;SDS011;63591;50.080;8.286;2022-12-29T08:43:50;6.33;;;2.13;;
75025;SDS011;63591;50.080;8.286;2022-12-29T08:46:15;4.43;;;1.93;;
75025;SDS011;63591;50.080;8.286;2022-12-29T08:48:41;4.70;;;2.15;;
75025;SDS011;63591;50.080;8.286;2022-12-29T08:51:07;5.33;;;2.17;;
75025;SDS011;63591;50.080;8.286;2022-12-29T08:53:33;4.55;;;2.22;;
75025;SDS011;63591;50.080;8.286;2022-12-29T08:55:59;5.13;;;2.07;;
75025;SDS011;63591;50.080;8.286;2022-12-29T08:58:25;4.93;;;2.72;;
75025;SDS011;63591;50.080;8.286;2022-12-29T09:00:52;5.15;;;2.10;;
75025;SDS011;63591;50.080;8.286;2022-12-29T09:03:21;5.32;;;2.20;;
75025;SDS011;63591;50.080;8.286;2022-12-29T09:05:48;6.22;;;2.40;;
75025;SDS011;63591;50.080;8.286;2022-12-29T09:08:14;7.63;;;2.40;;
75025;SDS011;63591;50.080;8.286;2022-12-29T09:10:40;4.93;;;2.20;;
75025;SDS011;63591;50.080;8.286;2022-12-29T09:13:05;4.93;;;2.07;;
75025;SDS011;63591;50.080;8.286;2022-12-29T09:15:31;4.97;;;2.00;;
75025;SDS011;63591;50.080;8.286;2022-12-29T09:17:56;4.80;;;2.30;;
75025;SDS011;63591;50.080;8.286;2022-12-29T09:20:21;6.20;;;2.20;;
75025;SDS011;63591;50.080;8.286;2022-12-29T09:22:47;6.00;;;2.20;;
75025;SDS011;63591;50.080;8.286;2022-12-29T09:25:12;4.90;;;2.45;;
75025;SDS011;63591;50.080;8.286;2022-12-29T09:27:38;5.40;;;2.50;;
75025;SDS011;63591;50.080;8.286;2022-12-29T09:30:04;5.68;;;2.40;;
75025;SDS011;63591;50.080;8.286;2022-12-29T09:32:32;4.65;;;2.20;;
75025;SDS011;63591;50.080;8.286;2022-12-29T09:34:58;6.57;;;2.58;;
75025;SDS011;63591;50.080;8.286;2022-12-29T09:37:23;5.43;;;2.30;;
75025;SDS011;63591;50.080;8.286;2022-12-29T09:39:48;5.13;;;2.43;;
75025;SDS011;63591;50.080;8.286;2022-12-29T09:42:16;7.23;;;2.43;;
75025;SDS011;63591;50.080;8.286;2022-12-29T09:47:35;6.18;;;2.40;;
75025;SDS011;63591;50.080;8.286;2022-12-29T09:50:03;4.65;;;2.20;;
75025;SDS011;63591;50.080;8.286;2022-12-29T09:52:42;5.88;;;2.30;;
75025;SDS011;63591;50.080;8.286;2022-12-29T09:55:16;6.55;;;2.00;;
75025;SDS011;63591;50.080;8.286;2022-12-29T09:57:45;5.30;;;1.90;;
75025;SDS011;63591;50.080;8.286;2022-12-29T10:00:19;4.50;;;2.10;;
75025;SDS011;63591;50.080;8.286;2022-12-29T10:02:48;5.00;;;2.10;;
75025;SDS011;63591;50.080;8.286;2022-12-29T10:08:00;4.90;;;2.10;;
75025;SDS011;63591;50.080;8.286;2022-12-29T10:10:51;4.90;;;1.83;;
75025;SDS011;63591;50.080;8.286;2022-12-29T10:13:33;5.15;;;1.80;;
75025;SDS011;63591;50.080;8.286;2022-12-29T10:16:15;3.90;;;1.67;;
75025;SDS011;63591;50.080;8.286;2022-12-29T10:21:26;4.70;;;1.70;;
75025;SDS011;63591;50.080;8.286;2022-12-29T10:24:02;4.57;;;1.83;;
75025;SDS011;63591;50.080;8.286;2022-12-29T10:26:42;4.25;;;1.45;;
75025;SDS011;63591;50.080;8.286;2022-12-29T10:29:13;6.10;;;1.42;;
75025;SDS011;63591;50.080;8.286;2022-12-29T10:31:44;4.55;;;1.25;;
75025;SDS011;63591;50.080;8.286;2022-12-29T10:34:27;4.10;;;1.45;;
75025;SDS011;63591;50.080;8.286;2022-12-29T10:36:57;3.83;;;1.30;;
75025;SDS011;63591;50.080;8.286;2022-12-29T10:44:47;3.47;;;1.20;;
75025;SDS011;63591;50.080;8.286;2022-12-29T10:47:15;3.83;;;1.20;;
75025;SDS011;63591;50.080;8.286;2022-12-29T10:49:45;3.47;;;1.17;;
75025;SDS011;63591;50.080;8.286;2022-12-29T10:52:12;3.78;;;1.02;;
75025;SDS011;63591;50.080;8.286;2022-12-29T10:57:27;4.53;;;1.10;;
75025;SDS011;63591;50.080;8.286;2022-12-29T10:59:54;2.67;;;0.82;;
75025;SDS011;63591;50.080;8.286;2022-12-29T11:07:56;3.00;;;0.90;;
75025;SDS011;63591;50.080;8.286;2022-12-29T11:15:26;3.22;;;0.80;;
75025;SDS011;63591;50.080;8.286;2022-12-29T11:17:52;3.25;;;0.98;;
75025;SDS011;63591;50.080;8.286;2022-12-29T11:22:56;2.90;;;0.95;;
75025;SDS011;63591;50.080;8.286;2022-12-29T11:25:22;2.42;;;0.70;;
75025;SDS011;63591;50.080;8.286;2022-12-29T11:30:38;2.70;;;0.70;;
75025;SDS011;63591;50.080;8.286;2022-12-29T11:33:04;2.90;;;0.70;;
75025;SDS011;63591;50.080;8.286;2022-12-29T11:35:34;3.33;;;0.80;;
75025;SDS011;63591;50.080;8.286;2022-12-29T11:38:02;3.28;;;0.73;;
75025;SDS011;63591;50.080;8.286;2022-12-29T11:40:29;3.70;;;0.70;;
75025;SDS011;63591;50.080;8.286;2022-12-29T11:42:58;3.25;;;0.60;;
75025;SDS011;63591;50.080;8.286;2022-12-29T11:45:31;3.45;;;0.77;;
75025;SDS011;63591;50.080;8.286;2022-12-29T11:50:55;3.90;;;0.80;;
75025;SDS011;63591;50.080;8.286;2022-12-29T11:53:26;4.93;;;0.80;;
75025;SDS011;63591;50.080;8.286;2022-12-29T11:55:57;2.90;;;0.80;;
75025;SDS011;63591;50.080;8.286;2022-12-29T11:58:29;3.55;;;0.70;;
75025;SDS011;63591;50.080;8.286;2022-12-29T12:00:57;3.08;;;0.60;;
75025;SDS011;63591;50.080;8.286;2022-12-29T12:03:28;4.47;;;0.95;;
75025;SDS011;63591;50.080;8.286;2022-12-29T12:06:02;3.92;;;1.00;;
75025;SDS011;63591;50.080;8.286;2022-12-29T12:08:31;3.05;;;0.90;;
75025;SDS011;63591;50.080;8.286;2022-12-29T12:13:47;4.13;;;0.80;;
75025;SDS011;63591;50.080;8.286;2022-12-29T12:16:27;3.45;;;0.77;;
75025;SDS011;63591;50.080;8.286;2022-12-29T12:19:04;4.50;;;0.80;;
75025;SDS011;63591;50.080;8.286;2022-12-29T12:21:43;2.80;;;0.70;;
75025;SDS011;63591;50.080;8.286;2022-12-29T12:26:58;3.65;;;0.90;;
75025;SDS011;63591;50.080;8.286;2022-12-29T12:34:50;6.28;;;1.23;;
75025;SDS011;63591;50.080;8.286;2022-12-29T12:49:02;4.22;;;0.80;;
75025;SDS011;63591;50.080;8.286;2022-12-29T12:51:47;3.38;;;0.70;;
75025;SDS011;63591;50.080;8.286;2022-12-29T12:57:47;3.15;;;0.77;;
75025;SDS011;63591;50.080;8.286;2022-12-29T13:00:14;3.70;;;0.80;;
75025;SDS011;63591;50.080;8.286;2022-12-29T13:03:04;3.30;;;0.80;;
75025;SDS011;63591;50.080;8.286;2022-12-29T13:08:36;4.25;;;0.80;;
75025;SDS011;63591;50.080;8.286;2022-12-29T13:11:21;3.40;;;0.70;;
75025;SDS011;63591;50.080;8.286;2022-12-29T13:16:50;2.80;;;0.70;;
75025;SDS011;63591;50.080;8.286;2022-12-29T13:20:10;3.28;;;0.80;;
75025;SDS011;63591;50.080;8.286;2022-12-29T13:25:32;3.30;;;0.80;;
75025;SDS011;63591;50.080;8.286;2022-12-29T13:28:29;4.00;;;1.10;;
75025;SDS011;63591;50.080;8.286;2022-12-29T13:36:50;3.88;;;0.90;;
75025;SDS011;63591;50.080;8.286;2022-12-29T13:39:26;4.28;;;1.08;;
75025;SDS011;63591;50.080;8.286;2022-12-29T13:41:58;3.77;;;0.90;;
75025;SDS011;63591;50.080;8.286;2022-12-29T13:44:28;3.95;;;0.98;;
75025;SDS011;63591;50.080;8.286;2022-12-29T13:46:59;3.72;;;1.00;;
75025;SDS011;63591;50.080;8.286;2022-12-29T13:49:29;4.10;;;1.00;;
75025;SDS011;63591;50.080;8.286;2022-12-29T13:51:56;4.43;;;1.00;;
75025;SDS011;63591;50.080;8.286;2022-12-29T13:57:34;3.75;;;1.00;;
75025;SDS011;63591;50.080;8.286;2022-12-29T14:02:45;3.22;;;0.90;;
75025;SDS011;63591;50.080;8.286;2022-12-29T14:07:42;4.72;;;1.05;;
75025;SDS011;63591;50.080;8.286;2022-12-29T14:10:20;3.50;;;1.17;;
75025;SDS011;63591;50.080;8.286;2022-12-29T14:13:00;5.57;;;1.17;;
75025;SDS011;63591;50.080;8.286;2022-12-29T14:15:29;4.20;;;1.15;;
75025;SDS011;63591;50.080;8.286;2022-12-29T14:18:09;4.10;;;1.00;;
75025;SDS011;63591;50.080;8.286;2022-12-29T14:20:38;3.88;;;1.00;;
75025;SDS011;63591;50.080;8.286;2022-12-29T14:25:53;4.93;;;1.30;;
75025;SDS011;63591;50.080;8.286;2022-12-29T14:28:26;4.55;;;1.20;;
75025;SDS011;63591;50.080;8.286;2022-12-29T14:30:57;3.20;;;0.90;;
75025;SDS011;63591;50.080;8.286;2022-12-29T14:33:25;4.65;;;0.95;;
75025;SDS011;63591;50.080;8.286;2022-12-29T14:35:52;4.40;;;0.98;;
75025;SDS011;63591;50.080;8.286;2022-12-29T14:38:19;3.58;;;0.90;;
75025;SDS011;63591;50.080;8.286;2022-12-29T14:40:47;3.63;;;1.00;;
75025;SDS011;63591;50.080;8.286;2022-12-29T14:43:18;6.65;;;1.30;;
75025;SDS011;63591;50.080;8.286;2022-12-29T14:45:51;3.97;;;1.08;;
75025;SDS011;63591;50.080;8.286;2022-12-29T14:48:30;4.60;;;1.00;;
75025;SDS011;63591;50.080;8.286;2022-12-29T14:50:59;4.15;;;0.90;;
75025;SDS011;63591;50.080;8.286;2022-12-29T14:53:46;4.07;;;1.13;;
75025;SDS011;63591;50.080;8.286;2022-12-29T14:56:14;3.42;;;1.00;;
75025;SDS011;63591;50.080;8.286;2022-12-29T15:01:19;4.63;;;1.20;;
75025;SDS011;63591;50.080;8.286;2022-12-29T15:04:17;5.55;;;1.27;;
75025;SDS011;63591;50.080;8.286;2022-12-29T15:06:45;4.30;;;1.02;;
75025;SDS011;63591;50.080;8.286;2022-12-29T15:09:33;3.60;;;1.00;;
75025;SDS011;63591;50.080;8.286;2022-12-29T15:12:11;5.25;;;1.20;;
75025;SDS011;63591;50.080;8.286;2022-12-29T15:14:48;4.93;;;1.40;;
75025;SDS011;63591;50.080;8.286;2022-12-29T15:17:28;4.43;;;1.00;;
75025;SDS011;63591;50.080;8.286;2022-12-29T15:19:56;4.72;;;1.00;;
75025;SDS011;63591;50.080;8.286;2022-12-29T15:22:23;4.95;;;1.08;;
75025;SDS011;63591;50.080;8.286;2022-12-29T15:24:50;4.93;;;1.05;;
75025;SDS011;63591;50.080;8.286;2022-12-29T15:27:21;3.53;;;0.90;;
75025;SDS011;63591;50.080;8.286;2022-12-29T15:29:55;4.40;;;1.10;;
75025;SDS011;63591;50.080;8.286;2022-12-29T15:32:27;4.80;;;1.10;;
75025;SDS011;63591;50.080;8.286;2022-12-29T15:34:55;3.88;;;1.00;;
75025;SDS011;63591;50.080;8.286;2022-12-29T15:37:31;5.63;;;1.00;;
75025;SDS011;63591;50.080;8.286;2022-12-29T15:40:00;4.53;;;1.00;;
75025;SDS011;63591;50.080;8.286;2022-12-29T15:42:40;4.28;;;0.95;;
75025;SDS011;63591;50.080;8.286;2022-12-29T15:45:19;4.03;;;0.93;;
75025;SDS011;63591;50.080;8.286;2022-12-29T15:47:44;4.05;;;1.00;;
75025;SDS011;63591;50.080;8.286;2022-12-29T15:50:17;4.93;;;1.25;;
75025;SDS011;63591;50.080;8.286;2022-12-29T15:52:48;4.93;;;1.00;;
75025;SDS011;63591;50.080;8.286;2022-12-29T15:55:21;5.32;;;1.08;;
75025;SDS011;63591;50.080;8.286;2022-12-29T15:57:58;3.65;;;0.90;;
75025;SDS011;63591;50.080;8.286;2022-12-29T16:00:29;4.18;;;0.82;;
75025;SDS011;63591;50.080;8.286;2022-12-29T16:02:57;5.43;;;1.07;;
75025;SDS011;63591;50.080;8.286;2022-12-29T16:05:31;4.38;;;1.00;;
75025;SDS011;63591;50.080;8.286;2022-12-29T16:07:58;4.93;;;1.00;;
75025;SDS011;63591;50.080;8.286;2022-12-29T16:10:28;4.75;;;1.25;;
75025;SDS011;63591;50.080;8.286;2022-12-29T16:13:01;4.53;;;1.10;;
75025;SDS011;63591;50.080;8.286;2022-12-29T16:15:37;4.03;;;1.07;;
75025;SDS011;63591;50.080;8.286;2022-12-29T16:18:03;4.07;;;0.90;;
75025;SDS011;63591;50.080;8.286;2022-12-29T16:20:37;5.90;;;1.07;;
75025;SDS011;63591;50.080;8.286;2022-12-29T16:23:05;6.57;;;1.10;;
75025;SDS011;63591;50.080;8.286;2022-12-29T16:25:41;7.93;;;1.20;;
75025;SDS011;63591;50.080;8.286;2022-12-29T16:28:15;4.45;;;1.05;;
75025;SDS011;63591;50.080;8.286;2022-12-29T16:30:43;4.07;;;1.20;;
75025;SDS011;63591;50.080;8.286;2022-12-29T16:36:21;5.07;;;1.20;;
75025;SDS011;63591;50.080;8.286;2022-12-29T16:38:47;5.40;;;1.08;;
75025;SDS011;63591;50.080;8.286;2022-12-29T16:41:12;4.67;;;1.00;;
75025;SDS011;63591;50.080;8.286;2022-12-29T16:44:15;4.85;;;1.20;;
75025;SDS011;63591;50.080;8.286;2022-12-29T16:46:43;4.30;;;1.00;;
75025;SDS011;63591;50.080;8.286;2022-12-29T16:49:22;4.63;;;1.15;;
75025;SDS011;63591;50.080;8.286;2022-12-29T16:51:48;4.47;;;1.30;;
75025;SDS011;63591;50.080;8.286;2022-12-29T16:54:19;4.75;;;0.95;;
75025;SDS011;63591;50.080;8.286;2022-12-29T16:57:04;4.78;;;1.13;;
75025;SDS011;63591;50.080;8.286;2022-12-29T17:02:00;4.75;;;1.30;;
75025;SDS011;63591;50.080;8.286;2022-12-29T17:04:31;4.38;;;0.98;;
75025;SDS011;63591;50.080;8.286;2022-12-29T17:06:56;3.90;;;1.10;;
75025;SDS011;63591;50.080;8.286;2022-12-29T17:09:23;3.90;;;0.97;;